McLean, TX (79057)

7:04 PM CDT on September 20, 2014 (GMT -0500)
WT_Meso McLean 1E | Change Station
CLOSE
Current Station
Personal Weather Station
Location: McLean, TX
Elevation: 2862 ft
Nearby Weather Stations

Elev 2862 ft 35.24 °N, 100.57 °W | Updated 39 minutes ago

Mostly Cloudy
Mostly Cloudy
82 °F
Feels Like 83 °F
N
9
Wind Variable Wind from SSE
Gusts 13.0 mph

Today
High -- | Low -- °F
--% Chance of Precip.
Yesterday
High -- | Low -- °F
Precip. -- in
7:28 AM 7:42 PM
Waning Crescent, 10% visible
Pressure 30.06 in
Visibility 10.0 miles
Clouds Scattered Clouds 6000 ft
Heat Index 83 °F
Dew Point 63 °F
Humidity 53%
Rainfall -999.00 in
Snow Depth Not available.
UV 0 out of 12
Pollen 5.60 out of 12
Air Quality Not available.
Flu Activity Not available.
METAR KPPA 202355Z AUTO 14006KT 10SM SCT060 28/16 A3006 RMK AO2 T02780157 10291 20256

More Conditions Fewer Conditions

Pressure 30.06 in
Visibility 10.0 miles
Clouds Scattered Clouds 6000 ft
Heat Index 83 °F
Dew Point 63 °F
Humidity 53%
Rainfall -999.00 in
Snow Depth Not available.
UV 0 out of 12
Pollen 5.60 out of 12
Air Quality Not available.
Flu Activity Not available.
METAR KPPA 202355Z AUTO 14006KT 10SM SCT060 28/16 A3006 RMK AO2 T02780157 10291 20256

More Conditions Fewer Conditions

10-Day Weather Forecast

Almanac

Astronomy

Sep. 20, 2014 Rise Set
Actual Time 7:28 AM CDT 7:42 PM CDT
Civil Twilight 7:03 AM CDT 8:07 PM CDT
Nautical Twilight 6:33 AM CDT 8:36 PM CDT
Astronomical Twilight 6:03 AM CDT 9:06 PM CDT
Moon 4:15 AM CDT (9/20) 5:41 PM CDT (9/20)
Length of Visible Light 13h 03m
Length of Day
12h 13m
Tomorrow will be 2m 12s shorter.
Waning Crescent, 10% of the Moon is Illuminated
Today
Waning Crescent
Sep 24
New
Oct 1
First Quarter
Oct 8
Full
Oct 15
Last Quarter

Today's Extremes

State Highs State Lows

Community

WunderPhotos

Upload Photos

1,754,982 photos uploaded!

WunderBlogs® & News

Nearby

Snow Depth

Station Depth Elevation
No new snow has been reported.

Earthquake Activity

City Distance Mag. Time & Date
No recent earthquake activity has been reported nearby.
Minimum magnitude displayed is 2.5.

Coastal Water Temperatures

Place Temperature
No Stations Reporting

Nearby Weather Stations